Time;durP1;ratioP1;P1;durP2;ratioP2;P2;SDS_P1;SDS_P2;PMS_P1;PMS_P2;Temp;Humidity;BMP_temperature;BMP_pressure;BME280_temperature;BME280_humidity;BME280_pressure;Samples;Min_cycle;Max_cycle;Signal;HPM_P1;HPM_P2
2022/08/24 00:00:52;;;;;;;850.78;782.55;;;20.50;99.90;;;;;;5055228;28;20060;-60
2022/08/24 00:03:18;;;;;;;851.83;782.80;;;20.60;99.90;;;;;;5054312;28;20043;-60
2022/08/24 00:05:44;;;;;;;799.03;736.90;;;20.60;99.90;;;;;;5054775;28;20127;-60
2022/08/24 00:08:09;;;;;;;839.10;771.17;;;20.60;99.90;;;;;;5053830;28;20452;-60
2022/08/24 00:10:35;;;;;;;814.33;749.95;;;20.60;99.90;;;;;;5054449;28;20457;-60
2022/08/24 00:13:01;;;;;;;831.83;766.58;;;20.50;99.90;;;;;;5054168;28;20120;-60
2022/08/24 00:15:27;;;;;;;851.35;783.72;;;20.70;99.90;;;;;;5055003;28;20464;-60
2022/08/24 00:17:52;;;;;;;842.15;776.35;;;20.50;99.90;;;;;;5054348;28;20092;-60
2022/08/24 00:20:18;;;;;;;855.70;786.65;;;20.50;99.90;;;;;;5054379;28;20579;-60
2022/08/24 00:22:44;;;;;;;825.92;760.30;;;20.50;99.90;;;;;;5053618;28;20080;-60
2022/08/24 00:25:12;;;;;;;836.20;768.53;;;20.40;99.90;;;;;;5054237;28;20503;-61
2022/08/24 00:27:39;;;;;;;810.38;745.97;;;20.50;99.90;;;;;;5052848;28;20051;-60
2022/08/24 00:30:10;;;;;;;811.67;743.55;;;20.30;99.90;;;;;;5082637;28;20163;-61
2022/08/24 00:32:36;;;;;;;817.58;753.55;;;20.30;99.90;;;;;;5052463;28;20036;-60
2022/08/24 00:35:04;;;;;;;762.38;706.88;;;20.30;99.90;;;;;;5053666;28;20404;-60
2022/08/24 00:37:30;;;;;;;783.40;724.78;;;20.20;99.90;;;;;;5053540;28;20475;-60
2022/08/24 00:39:56;;;;;;;760.50;704.05;;;20.20;99.90;;;;;;5054155;28;20123;-60
2022/08/24 00:42:23;;;;;;;780.25;721.22;;;;;;;;;;5036055;28;20057;-60
2022/08/24 00:44:49;;;;;;;823.80;758.30;;;;;;;;;;5053488;28;20490;-60
2022/08/24 00:47:20;;;;;;;770.85;712.97;;;;;;;;;;5053926;28;20053;-60
2022/08/24 00:49:55;;;;;;;806.45;744.47;;;;;;;;;;5053978;28;20056;-60
2022/08/24 00:52:24;;;;;;;856.78;785.25;;;;;;;;;;5053454;28;20048;-60
2022/08/24 00:54:54;;;;;;;825.40;759.33;;;;;;;;;;5052858;28;20053;-60
2022/08/24 00:57:25;;;;;;;822.15;759.38;;;;;;;;;;5053608;28;20123;-60
2022/08/24 00:59:54;;;;;;;820.30;758.53;;;;;;;;;;5053181;28;20057;-60
2022/08/24 01:02:23;;;;;;;837.90;768.78;;;;;;;;;;5052615;28;20048;-60
2022/08/24 01:04:53;;;;;;;752.65;697.83;;;;;;;;;;5052739;28;20083;-61
2022/08/24 01:07:21;;;;;;;828.97;765.47;;;;;;;;;;5052918;28;20048;-60
2022/08/24 01:09:48;;;;;;;828.28;764.17;;;;;;;;;;5053918;28;20495;-60
2022/08/24 01:12:16;;;;;;;785.30;725.05;;;;;;;;;;5052387;28;20052;-61
2022/08/24 01:14:42;;;;;;;821.88;757.78;;;;;;;;;;5053214;28;20103;-60
2022/08/24 01:19:55;;;;;;;790.60;731.85;;;;;;;;;;5051437;28;20439;-60
2022/08/24 01:22:28;;;;;;;772.15;716.45;;;;;;;;;;5052463;28;20036;-60
2022/08/24 01:24:55;;;;;;;797.00;737.03;;;;;;;;;;5046681;28;20049;-60
2022/08/24 01:27:22;;;;;;;779.88;721.63;;;;;;;;;;5034857;28;20124;-60
2022/08/24 01:29:49;;;;;;;825.25;761.80;;;;;;;;;;5053613;28;20083;-60
2022/08/24 01:32:19;;;;;;;831.78;760.83;;;;;;;;;;5035341;28;20483;-60
2022/08/24 01:34:45;;;;;;;790.50;729.63;;;19.70;99.90;;;;;;5052551;28;20415;-60
2022/08/24 01:37:11;;;;;;;823.05;755.63;;;19.60;99.90;;;;;;5052144;28;20115;-60
2022/08/24 01:39:43;;;;;;;787.83;727.25;;;19.50;99.90;;;;;;5052175;28;20048;-60
2022/08/24 01:42:10;;;;;;;768.08;705.88;;;19.40;99.90;;;;;;5052139;28;20033;-60
2022/08/24 01:44:39;;;;;;;780.53;715.90;;;19.20;99.90;;;;;;5052156;28;20103;-60
2022/08/24 01:47:08;;;;;;;768.63;708.28;;;19.20;99.90;;;;;;5051284;28;20076;-60
2022/08/24 01:49:40;;;;;;;774.25;714.58;;;19.20;99.90;;;;;;5034601;28;20628;-60
2022/08/24 01:52:08;;;;;;;745.67;689.00;;;19.20;99.90;;;;;;5068235;28;20041;-60
2022/08/24 01:54:34;;;;;;;730.25;674.38;;;19.10;99.90;;;;;;5084905;28;20130;-60
2022/08/24 01:57:00;;;;;;;728.67;672.83;;;19.10;99.90;;;;;;5085025;28;20045;-60
2022/08/24 01:59:26;;;;;;;730.58;672.20;;;19.10;99.90;;;;;;5051564;28;20052;-60
2022/08/24 02:01:58;;;;;;;743.83;689.20;;;19.10;99.90;;;;;;5051282;28;20044;-60
2022/08/24 02:04:23;;;;;;;785.47;724.78;;;19.10;99.90;;;;;;5051208;28;20057;-60
2022/08/24 02:06:49;;;;;;;752.63;697.05;;;19.00;99.90;;;;;;5034550;28;20041;-60
2022/08/24 02:09:16;;;;;;;771.75;715.80;;;19.00;99.90;;;;;;5051175;28;20442;-60
2022/08/24 02:11:42;;;;;;;774.47;716.60;;;19.00;99.90;;;;;;5050823;28;20052;-60
2022/08/24 02:14:12;;;;;;;778.65;720.38;;;19.00;99.90;;;;;;5051415;28;20084;-60
2022/08/24 02:16:38;;;;;;;782.00;724.30;;;19.00;99.90;;;;;;5066878;28;20045;-60
2022/08/24 02:19:05;;;;;;;835.42;772.92;;;19.00;99.90;;;;;;5052545;28;20053;-60
2022/08/24 02:21:31;;;;;;;818.08;755.47;;;18.90;99.90;;;;;;5051358;28;20462;-60
2022/08/24 02:23:57;;;;;;;866.40;798.42;;;18.90;99.90;;;;;;5050702;28;20125;-60
2022/08/24 02:26:23;;;;;;;803.58;743.85;;;18.90;99.90;;;;;;5050905;28;20442;-60
2022/08/24 02:28:49;;;;;;;821.00;754.55;;;18.80;99.90;;;;;;5051591;28;20045;-60
2022/08/24 02:31:16;;;;;;;760.47;705.70;;;18.80;99.90;;;;;;5051838;28;20075;-60
2022/08/24 02:33:43;;;;;;;879.25;809.35;;;18.60;99.90;;;;;;5050895;28;20116;-60
2022/08/24 02:36:11;;;;;;;928.45;850.35;;;18.60;99.90;;;;;;5051092;28;20478;-60
2022/08/24 02:38:38;;;;;;;877.05;800.53;;;18.50;99.90;;;;;;5051355;28;20529;-60
2022/08/24 02:41:10;;;;;;;916.55;839.65;;;18.50;99.90;;;;;;5051105;28;20049;-60
2022/08/24 02:43:36;;;;;;;922.20;845.00;;;18.50;99.90;;;;;;5050390;28;20053;-60
2022/08/24 02:46:01;;;;;;;902.45;821.13;;;18.60;99.90;;;;;;5051565;28;20537;-60
2022/08/24 02:48:28;;;;;;;875.05;804.08;;;18.60;99.90;;;;;;5051037;28;20094;-60
2022/08/24 02:50:55;;;;;;;868.80;796.88;;;18.70;99.90;;;;;;5050098;28;20048;-60
2022/08/24 02:53:22;;;;;;;847.00;782.15;;;18.60;99.90;;;;;;5034920;28;20037;-60
2022/08/24 02:55:48;;;;;;;863.78;795.30;;;18.70;99.90;;;;;;5051055;28;20076;-60
2022/08/24 02:58:17;;;;;;;857.17;789.78;;;18.70;99.90;;;;;;5050614;28;20033;-60
2022/08/24 03:00:47;;;;;;;836.45;769.90;;;18.80;99.90;;;;;;5050579;28;20053;-60
2022/08/24 03:03:15;;;;;;;825.63;764.47;;;18.80;99.90;;;;;;5050952;28;20127;-60
2022/08/24 03:05:40;;;;;;;846.50;780.13;;;18.80;99.90;;;;;;5050251;28;20120;-60
2022/08/24 03:08:07;;;;;;;853.38;782.45;;;18.70;99.90;;;;;;5052279;28;20123;-60
2022/08/24 03:10:34;;;;;;;854.17;786.90;;;18.70;99.90;;;;;;5051391;28;20498;-60
2022/08/24 03:13:01;;;;;;;830.70;762.60;;;18.60;99.90;;;;;;5050072;28;20099;-60
2022/08/24 03:15:28;;;;;;;796.63;736.10;;;18.50;99.90;;;;;;5084420;28;20475;-60
2022/08/24 03:17:55;;;;;;;802.58;738.28;;;18.50;99.90;;;;;;5083881;28;20044;-59
2022/08/24 03:20:22;;;;;;;800.50;738.67;;;18.40;99.90;;;;;;5050365;28;20056;-60
2022/08/24 03:22:48;;;;;;;805.22;745.28;;;18.30;99.90;;;;;;5051171;28;20045;-60
2022/08/24 03:25:16;;;;;;;805.13;743.40;;;18.30;99.90;;;;;;5054980;28;20250;-60
2022/08/24 03:27:42;;;;;;;822.22;757.95;;;18.30;99.90;;;;;;5055017;28;20040;-60
2022/08/24 03:30:11;;;;;;;850.03;783.58;;;18.30;99.90;;;;;;5054638;28;20041;-60
2022/08/24 03:32:40;;;;;;;856.33;789.97;;;18.30;99.90;;;;;;5053594;28;20080;-60
2022/08/24 03:35:06;;;;;;;938.78;853.90;;;18.20;99.90;;;;;;5054083;28;20048;-60
2022/08/24 03:37:32;;;;;;;974.67;887.28;;;18.20;99.90;;;;;;5054689;28;20092;-60
2022/08/24 03:39:58;;;;;;;864.00;798.03;;;18.20;99.90;;;;;;5054318;28;20052;-60
2022/08/24 03:42:25;;;;;;;918.65;842.58;;;18.20;99.90;;;;;;5087791;28;20045;-60
2022/08/24 03:44:50;;;;;;;917.97;839.90;;;18.20;99.90;;;;;;5054962;28;20068;-60
2022/08/24 03:47:19;;;;;;;889.58;818.35;;;18.20;99.90;;;;;;5053410;28;20053;-60
2022/08/24 03:49:44;;;;;;;851.47;783.10;;;18.30;99.90;;;;;;5054399;28;20045;-60
2022/08/24 03:52:10;;;;;;;923.47;840.28;;;18.30;99.90;;;;;;5037387;28;20178;-60
2022/08/24 03:54:36;;;;;;;892.20;813.85;;;18.30;99.90;;;;;;5053004;28;20053;-60
2022/08/24 03:57:02;;;;;;;862.83;792.03;;;18.20;99.90;;;;;;5054027;28;20302;-60
2022/08/24 03:59:28;;;;;;;899.03;820.08;;;18.10;99.90;;;;;;5054834;28;20580;-60
2022/08/24 04:01:57;;;;;;;917.25;839.10;;;18.10;99.90;;;;;;5052846;28;20049;-60
2022/08/24 04:04:25;;;;;;;932.78;848.35;;;18.10;99.90;;;;;;5054009;28;20080;-60
2022/08/24 04:06:51;;;;;;;883.25;809.63;;;18.10;99.90;;;;;;5053778;28;20535;-60
2022/08/24 04:09:17;;;;;;;900.00;824.55;;;18.10;99.90;;;;;;5052575;28;20124;-60
2022/08/24 04:11:45;;;;;;;832.90;767.53;;;18.20;99.90;;;;;;5054552;28;20128;-60
2022/08/24 04:14:14;;;;;;;827.67;764.78;;;18.20;99.90;;;;;;5053562;28;20419;-60
2022/08/24 04:16:44;;;;;;;861.63;793.15;;;18.20;99.90;;;;;;5052917;28;20423;-60
2022/08/24 04:19:17;;;;;;;848.90;778.55;;;18.20;99.90;;;;;;5053513;28;20407;-60
2022/08/24 04:21:43;;;;;;;817.38;753.90;;;18.00;99.90;;;;;;5052889;28;20056;-60
2022/08/24 04:24:11;;;;;;;877.28;798.35;;;17.80;99.90;;;;;;5054488;28;20086;-60
2022/08/24 04:26:39;;;;;;;899.88;813.30;;;17.70;99.90;;;;;;5054845;28;20051;-60
2022/08/24 04:29:08;;;;;;;941.78;842.38;;;17.60;99.90;;;;;;5052531;28;20049;-60
2022/08/24 04:31:40;;;;;;;909.97;810.75;;;17.50;99.90;;;;;;5053013;28;20131;-60
2022/08/24 04:34:07;;;;;;;903.30;816.15;;;17.40;99.90;;;;;;5053337;28;20060;-60
2022/08/24 04:36:33;;;;;;;875.35;803.00;;;17.30;99.90;;;;;;5052689;28;20047;-60
2022/08/24 04:39:00;;;;;;;892.67;814.35;;;17.30;99.90;;;;;;5052360;28;20285;-60
2022/08/24 04:41:44;;;;;;;901.97;825.13;;;17.30;99.90;;;;;;5054641;28;20064;-60
2022/08/24 04:44:11;;;;;;;881.63;805.95;;;17.30;99.90;;;;;;5052764;28;20045;-60
2022/08/24 04:46:38;;;;;;;885.92;808.47;;;17.30;99.90;;;;;;5052747;28;20111;-60
2022/08/24 04:49:04;;;;;;;933.83;848.38;;;17.40;99.90;;;;;;5036443;28;20115;-60
2022/08/24 04:51:34;;;;;;;875.05;798.38;;;17.40;99.90;;;;;;5051998;28;20491;-60
2022/08/24 04:54:00;;;;;;;870.85;795.38;;;17.40;99.90;;;;;;5052902;28;20102;-60
2022/08/24 04:56:25;;;;;;;885.25;810.92;;;17.40;99.90;;;;;;5052845;28;20052;-60
2022/08/24 04:58:55;;;;;;;918.83;801.70;;;17.40;99.90;;;;;;5052112;28;20092;-60
2022/08/24 05:01:25;;;;;;;1189.35;814.28;;;17.40;99.90;;;;;;5053850;28;20084;-60
2022/08/24 05:03:54;;;;;;;1022.83;801.88;;;17.30;99.90;;;;;;5035319;28;20140;-60
2022/08/24 05:06:22;;;;;;;930.00;850.30;;;17.30;99.90;;;;;;5053849;28;20688;-60
2022/08/24 05:08:48;;;;;;;863.38;793.08;;;17.30;99.90;;;;;;5049196;28;20099;-60
2022/08/24 05:11:16;;;;;;;945.30;861.00;;;17.40;99.90;;;;;;5031856;28;20041;-60
2022/08/24 05:13:43;;;;;;;901.10;823.38;;;17.50;99.90;;;;;;5043716;28;20056;-60
2022/08/24 05:16:12;;;;;;;847.97;778.90;;;17.60;99.90;;;;;;5052337;28;20377;-60
2022/08/24 05:18:39;;;;;;;908.35;833.53;;;17.60;99.90;;;;;;5051829;28;20062;-60
2022/08/24 05:21:07;;;;;;;847.42;777.92;;;17.60;99.90;;;;;;5052620;28;20131;-60
2022/08/24 05:23:35;;;;;;;855.38;783.88;;;17.70;99.90;;;;;;5034521;28;20047;-60
2022/08/24 05:26:06;;;;;;;876.45;803.13;;;17.60;99.90;;;;;;5051499;28;20402;-60
2022/08/24 05:28:34;;;;;;;841.40;772.10;;;17.60;99.90;;;;;;5052361;28;20049;-60
2022/08/24 05:31:17;;;;;;;845.72;777.80;;;17.70;99.90;;;;;;5051834;28;20045;-60
2022/08/24 05:33:43;;;;;;;879.28;801.03;;;17.80;99.90;;;;;;5051505;28;20052;-60
2022/08/24 05:36:17;;;;;;;896.53;819.28;;;18.00;99.90;;;;;;5052348;28;20128;-60
2022/08/24 05:38:42;;;;;;;885.30;810.00;;;18.10;99.90;;;;;;5053176;28;20056;-60
2022/08/24 05:41:08;;;;;;;886.05;810.58;;;18.30;99.90;;;;;;5050891;28;20496;-60
2022/08/24 05:43:35;;;;;;;858.05;786.08;;;18.40;99.90;;;;;;5052108;28;20045;-60
2022/08/24 05:46:01;;;;;;;795.78;735.10;;;18.60;99.90;;;;;;5051384;28;20558;-60
2022/08/24 05:48:27;;;;;;;872.63;791.08;;;18.70;99.90;;;;;;5034099;28;20037;-60
2022/08/24 05:51:00;;;;;;;931.28;844.10;;;18.90;99.90;;;;;;5053242;28;20049;-60
2022/08/24 05:53:32;;;;;;;;;;;19.00;99.90;;;;;;5051255;28;20488;-60
2022/08/24 05:56:02;;;;;;;839.80;770.95;;;19.10;99.90;;;;;;5053043;28;20334;-60
2022/08/24 05:58:28;;;;;;;865.92;795.70;;;19.10;99.90;;;;;;5051627;28;20037;-60
2022/08/24 06:00:54;;;;;;;943.20;856.83;;;19.10;99.90;;;;;;5050769;28;20114;-60
2022/08/24 06:03:20;;;;;;;909.00;823.03;;;19.20;99.90;;;;;;5053089;28;20045;-60
2022/08/24 06:05:51;;;;;;;879.67;795.15;;;19.30;99.90;;;;;;5051077;28;20064;-60
2022/08/24 06:08:18;;;;;;;847.40;776.10;;;19.40;99.90;;;;;;5033871;28;20470;-60
2022/08/24 06:10:46;;;;;;;805.95;740.08;;;19.60;99.90;;;;;;5051810;28;20054;-60
2022/08/24 06:13:13;;;;;;;793.50;732.75;;;19.80;99.90;;;;;;5034619;28;20060;-60
2022/08/24 06:15:40;;;;;;;880.47;802.50;;;20.00;99.90;;;;;;5050412;28;20044;-60
2022/08/24 06:18:07;;;;;;;834.83;767.90;;;20.20;99.90;;;;;;5051721;28;20127;-60
2022/08/24 06:20:39;;;;;;;909.35;819.58;;;20.40;99.90;;;;;;5051723;28;20130;-60
2022/08/24 06:23:05;;;;;;;841.58;770.50;;;20.60;99.90;;;;;;5050621;28;20045;-60
2022/08/24 06:28:25;;;;;;;786.72;724.00;;;20.90;99.90;;;;;;5035695;28;20443;-60
2022/08/24 06:31:00;;;;;;;876.00;794.58;;;21.10;99.90;;;;;;5038851;28;20049;-60
2022/08/24 06:33:27;;;;;;;790.88;723.13;;;21.30;99.90;;;;;;5081663;28;20475;-60
2022/08/24 06:35:56;;;;;;;855.45;784.10;;;21.40;99.90;;;;;;5045255;28;20493;-60
2022/08/24 06:38:22;;;;;;;821.10;753.97;;;21.60;99.90;;;;;;5071758;28;20037;-60
2022/08/24 06:40:50;;;;;;;903.28;822.63;;;21.80;99.90;;;;;;5067442;28;20079;-60
2022/08/24 06:43:18;;;;;;;876.92;801.20;;;21.90;99.90;;;;;;5050690;28;20037;-60
2022/08/24 06:45:48;;;;;;;822.00;755.20;;;22.10;99.90;;;;;;5051305;28;20045;-60
2022/08/24 06:48:17;;;;;;;865.00;790.03;;;22.20;99.90;;;;;;5050758;28;20048;-60
2022/08/24 06:50:43;;;;;;;829.80;760.65;;;22.30;99.90;;;;;;5050023;28;20044;-60
2022/08/24 06:53:13;;;;;;;825.22;758.47;;;22.40;99.90;;;;;;5050588;28;20487;-60
2022/08/24 06:55:51;;;;;;;835.92;768.05;;;22.50;99.90;;;;;;5081473;28;20518;-60
2022/08/24 06:58:19;;;;;;;822.38;754.58;;;22.70;99.90;;;;;;5049317;28;20045;-60
2022/08/24 07:00:45;;;;;;;818.20;752.08;;;22.90;99.90;;;;;;5054118;28;20057;-60
2022/08/24 07:03:13;;;;;;;922.67;839.28;;;23.00;99.90;;;;;;5054885;28;20079;-60
2022/08/24 07:05:51;;;;;;;816.05;750.40;;;23.10;99.90;;;;;;5053806;28;20056;-60
2022/08/24 07:08:30;;;;;;;823.42;758.40;;;23.20;99.90;;;;;;5054779;28;20033;-60
2022/08/24 07:10:55;;;;;;;750.60;694.25;;;23.40;99.90;;;;;;5053893;28;20407;-60
2022/08/24 07:13:22;;;;;;;788.40;726.55;;;23.50;99.90;;;;;;5037629;28;20092;-60
2022/08/24 07:15:50;;;;;;;822.95;757.47;;;23.60;99.90;;;;;;5055020;28;20095;-60
2022/08/24 07:18:18;;;;;;;798.70;736.22;;;23.70;99.90;;;;;;5053776;28;20045;-60
2022/08/24 07:20:48;;;;;;;768.40;708.75;;;23.90;99.90;;;;;;5054234;28;20048;-60
2022/08/24 07:23:18;;;;;;;778.38;717.25;;;24.00;99.90;;;;;;5053704;28;20033;-61
2022/08/24 07:25:45;;;;;;;827.78;760.55;;;24.10;99.90;;;;;;5053610;28;20107;-60
2022/08/24 07:28:12;;;;;;;780.17;719.65;;;24.10;99.90;;;;;;5054425;28;20047;-60
2022/08/24 07:30:41;;;;;;;742.92;686.42;;;24.30;99.90;;;;;;5054684;28;20099;-60
2022/08/24 07:33:07;;;;;;;723.80;668.83;;;24.30;99.90;;;;;;5053676;28;20049;-60
2022/08/24 07:35:35;;;;;;;731.30;675.40;;;24.50;99.90;;;;;;5053931;28;20092;-60
2022/08/24 07:38:03;;;;;;;766.17;704.97;;;24.40;99.90;;;;;;5054633;28;20052;-60
2022/08/24 07:40:30;;;;;;;755.10;697.97;;;24.40;99.90;;;;;;5053786;28;20053;-61
2022/08/24 07:42:57;;;;;;;801.28;740.15;;;24.30;99.90;;;;;;5053869;28;20049;-61
2022/08/24 07:45:25;;;;;;;842.28;773.75;;;24.30;99.90;;;;;;5079690;28;20037;-60
2022/08/24 07:47:53;;;;;;;851.08;777.30;;;24.30;99.90;;;;;;5035575;28;20046;-60
2022/08/24 07:50:35;;;;;;;661.22;602.35;;;24.30;99.90;;;;;;5077643;28;20200;-60
2022/08/24 07:53:01;;;;;;;642.15;583.30;;;24.50;99.90;;;;;;5053979;28;20072;-60
2022/08/24 07:55:27;;;;;;;345.20;314.88;;;24.70;99.90;;;;;;5037158;28;20110;-60
2022/08/24 07:57:53;;;;;;;1561.15;801.20;;;24.90;99.90;;;;;;5053221;28;20494;-61
2022/08/24 08:00:20;;;;;;;1999.90;999.90;;;25.10;99.90;;;;;;5052291;28;20044;-60
2022/08/24 08:02:51;;;;;;;;;;;25.20;99.90;;;;;;5054032;28;20033;-61
2022/08/24 08:05:21;;;;;;;1999.90;999.90;;;25.40;99.90;;;;;;5070995;28;19990;-60
2022/08/24 08:07:51;;;;;;;1999.90;999.90;;;25.50;99.90;;;;;;5040291;28;20044;-60
2022/08/24 08:10:17;;;;;;;1999.90;999.90;;;25.60;99.90;;;;;;5053737;28;20110;-61
2022/08/24 08:12:45;;;;;;;1999.90;999.90;;;;;;;;;;5053086;28;20530;-61
2022/08/24 08:15:13;;;;;;;1999.90;999.90;;;;;;;;;;5053966;28;20092;-60
2022/08/24 08:17:49;;;;;;;1999.90;999.90;;;;;;;;;;5052492;28;20049;-61
2022/08/24 08:20:15;;;;;;;1999.90;999.90;;;26.30;99.90;;;;;;5052640;28;20061;-61
2022/08/24 08:25:51;;;;;;;788.80;717.25;;;;;;;;;;5043686;28;20084;-61
2022/08/24 08:28:24;;;;;;;1415.32;878.33;;;26.60;99.90;;;;;;5052073;28;20513;-61
2022/08/24 08:30:51;;;;;;;799.67;727.90;;;26.90;99.90;;;;;;5053181;28;20499;-61
2022/08/24 08:33:17;;;;;;;873.40;792.45;;;26.70;99.90;;;;;;5053249;28;20087;-61
2022/08/24 08:35:43;;;;;;;836.80;758.38;;;26.80;99.90;;;;;;5038794;28;20041;-61
2022/08/24 08:38:10;;;;;;;916.42;833.90;;;27.00;99.90;;;;;;5035104;28;20124;-61
2022/08/24 08:40:59;;;;;;;934.90;847.47;;;27.00;99.90;;;;;;5052881;28;20049;-61
2022/08/24 08:43:42;;;;;;;933.08;849.38;;;27.00;99.90;;;;;;5051663;28;20045;-61
2022/08/24 08:46:17;;;;;;;871.08;806.85;;;;;;;;;;5053534;28;20045;-61
2022/08/24 08:50:04;;;;;;;860.88;798.83;;;27.30;99.90;;;;;;5051964;28;20045;-61
2022/08/24 08:53:06;;;;;;;858.17;795.92;;;27.30;99.90;;;;;;5052373;28;20119;-61
2022/08/24 08:55:41;;;;;;;832.13;773.10;;;27.30;99.90;;;;;;5052168;28;20049;-60
2022/08/24 08:58:21;;;;;;;897.95;828.38;;;27.30;99.90;;;;;;5051697;28;20079;-60
2022/08/24 09:00:53;;;;;;;861.83;799.65;;;27.30;99.90;;;;;;5052115;28;20064;-61
2022/08/24 09:03:38;;;;;;;899.53;831.97;;;27.40;99.90;;;;;;5051528;28;20052;-61
2022/08/24 09:06:33;;;;;;;871.85;807.85;;;27.60;99.90;;;;;;5053641;28;20134;-60
2022/08/24 09:09:16;;;;;;;866.65;803.65;;;27.80;99.90;;;;;;5035049;28;20106;-61
2022/08/24 09:12:01;;;;;;;838.30;777.83;;;27.80;99.90;;;;;;5082318;28;20102;-61
2022/08/24 09:14:57;;;;;;;879.63;813.38;;;27.90;99.90;;;;;;5050820;28;20107;-61
2022/08/24 09:17:44;;;;;;;846.70;784.80;;;28.00;99.90;;;;;;5049847;28;20526;-61
2022/08/24 09:20:20;;;;;;;838.72;778.40;;;28.20;99.90;;;;;;5050964;28;20056;-61
2022/08/24 09:22:52;;;;;;;796.78;740.63;;;28.40;99.90;;;;;;5050755;28;20094;-61
2022/08/24 09:25:30;;;;;;;762.50;711.13;;;28.50;99.90;;;;;;5049411;28;20052;-61
2022/08/24 09:28:17;;;;;;;756.10;704.00;;;28.60;99.90;;;;;;5084871;28;20064;-61
2022/08/24 09:30:56;;;;;;;713.92;666.17;;;28.70;99.90;;;;;;5053247;28;20072;-61
2022/08/24 09:33:35;;;;;;;758.30;706.25;;;28.80;99.90;;;;;;5052770;28;20067;-61
2022/08/24 09:36:08;;;;;;;728.03;679.15;;;28.90;99.90;;;;;;5053336;28;20472;-61
2022/08/24 09:38:57;;;;;;;674.88;631.65;;;29.00;99.90;;;;;;5052137;28;20087;-61
2022/08/24 09:41:42;;;;;;;749.92;697.95;;;;;;;;;;5053325;28;20060;-61
2022/08/24 09:44:26;;;;;;;1999.90;999.90;;;;;;;;;;5053185;28;20450;-61
2022/08/24 09:47:05;;;;;;;1999.90;999.90;;;;;;;;;;5052349;28;20487;-61
2022/08/24 09:49:35;;;;;;;1999.90;999.90;;;;;;;;;;5052762;28;20095;-61
2022/08/24 09:52:17;;;;;;;1999.90;999.90;;;;;;;;;;5051645;28;20037;-61
2022/08/24 09:54:46;;;;;;;1999.90;999.90;;;;;;;;;;5083171;28;20059;-61
2022/08/24 09:57:21;;;;;;;1999.90;999.90;;;;;;;;;;5052182;28;20056;-61
2022/08/24 10:00:09;;;;;;;1999.90;999.90;;;29.60;98.60;;;;;;5052252;28;20124;-61
2022/08/24 10:02:47;;;;;;;1999.90;999.90;;;29.60;98.40;;;;;;5052702;28;20379;-61
2022/08/24 10:05:40;;;;;;;1999.90;999.90;;;29.70;97.90;;;;;;5051985;28;20048;-61
2022/08/24 10:08:18;;;;;;;1999.90;999.90;;;29.60;97.70;;;;;;5032012;28;20049;-61
2022/08/24 10:11:19;;;;;;;1999.90;999.90;;;29.50;97.50;;;;;;5032892;28;20057;-61
2022/08/24 10:13:54;;;;;;;1999.90;999.90;;;29.50;98.20;;;;;;5036844;28;20088;-61
2022/08/24 10:16:39;;;;;;;1999.90;999.90;;;29.60;98.00;;;;;;5052709;28;20114;-61
2022/08/24 10:19:15;;;;;;;1999.90;999.90;;;29.90;98.10;;;;;;5052663;28;20041;-61
2022/08/24 10:21:53;;;;;;;1999.90;999.90;;;30.20;97.00;;;;;;5052223;28;20059;-61
2022/08/24 10:24:27;;;;;;;1999.90;999.90;;;;;;;;;;5052050;28;20045;-61
2022/08/24 10:27:08;;;;;;;1999.90;999.90;;;;;;;;;;5052046;28;20040;-61
2022/08/24 10:30:02;;;;;;;1999.90;999.90;;;31.60;99.90;;;;;;5051966;28;20044;-61
2022/08/24 10:32:46;;;;;;;1999.90;999.90;;;32.50;93.50;;;;;;5050134;28;20045;-61
2022/08/24 10:35:15;;;;;;;1999.90;999.90;;;;;;;;;;5050379;28;20057;-61
2022/08/24 10:39:39;;;;;;;1999.90;999.90;;;33.90;91.10;;;;;;5049933;28;20081;-61
2022/08/24 10:40:50;;;;;;;1999.90;999.90;;;34.60;90.10;;;;;;5049125;28;20106;-61
2022/08/24 10:43:32;;;;;;;1999.90;999.90;;;35.30;86.10;;;;;;5051839;28;20052;-61
2022/08/24 10:46:28;;;;;;;1999.90;999.90;;;35.80;76.90;;;;;;5052216;28;20056;-61
2022/08/24 10:49:04;;;;;;;1999.90;999.90;;;35.80;76.60;;;;;;5049750;28;20340;-61
2022/08/24 10:51:59;;;;;;;1999.90;999.90;;;35.70;74.90;;;;;;5051461;28;20041;-61
2022/08/24 10:54:25;;;;;;;1999.90;999.90;;;35.50;71.60;;;;;;5050289;28;20048;-61
2022/08/24 10:57:06;;;;;;;1999.90;999.90;;;35.90;74.50;;;;;;5049750;28;20062;-61
2022/08/24 10:59:42;;;;;;;1999.90;999.90;;;36.20;73.20;;;;;;5052101;28;20049;-61
2022/08/24 11:02:26;;;;;;;1999.90;999.90;;;36.40;72.00;;;;;;5052201;28;20112;-61
2022/08/24 11:04:57;;;;;;;1999.90;999.90;;;36.40;68.50;;;;;;5051815;28;20064;-61
2022/08/24 11:07:23;;;;;;;1999.90;999.90;;;36.20;69.30;;;;;;5050936;28;20471;-61
2022/08/24 11:09:54;;;;;;;1999.90;999.90;;;36.10;69.10;;;;;;5049541;28;20057;-61
2022/08/24 11:12:40;;;;;;;1999.90;999.90;;;35.80;68.50;;;;;;5051605;28;20029;-61
2022/08/24 11:15:08;;;;;;;1999.90;999.90;;;35.90;66.40;;;;;;5050637;28;20052;-61
2022/08/24 11:17:34;;;;;;;1999.90;999.90;;;36.20;68.00;;;;;;5031373;28;20462;-61
2022/08/24 11:20:00;;;;;;;1999.90;999.90;;;36.70;67.30;;;;;;5043888;28;20128;-61
2022/08/24 11:22:39;;;;;;;1999.90;999.90;;;36.70;65.60;;;;;;5052015;28;20052;-61
2022/08/24 11:25:14;;;;;;;1999.90;999.90;;;36.80;64.60;;;;;;5045078;28;20059;-61
2022/08/24 11:27:44;;;;;;;1999.90;999.90;;;;;;;;;;5050494;28;20112;-61
2022/08/24 11:30:13;;;;;;;1999.90;999.90;;;37.10;63.20;;;;;;5051237;28;20080;-61
2022/08/24 11:32:58;;;;;;;1999.90;999.90;;;37.00;62.80;;;;;;5050455;28;20456;-61
2022/08/24 11:35:31;;;;;;;1999.90;999.90;;;37.20;64.40;;;;;;5051712;28;20145;-61
2022/08/24 11:38:04;;;;;;;1999.90;999.90;;;37.80;62.50;;;;;;5051454;28;20087;-61
2022/08/24 11:40:36;;;;;;;1999.90;999.90;;;38.20;60.80;;;;;;5051374;28;20056;-61
2022/08/24 11:43:02;;;;;;;;;;;37.90;60.50;;;;;;5051622;28;20494;-61
2022/08/24 11:45:43;;;;;;;1999.90;999.90;;;37.80;61.40;;;;;;5052833;28;20008;-61
2022/08/24 11:48:32;;;;;;;1999.90;999.90;;;38.20;61.00;;;;;;5055292;28;20076;-61
2022/08/24 11:51:17;;;;;;;1999.90;999.90;;;38.70;60.00;;;;;;5052992;28;20059;-61
2022/08/24 11:54:03;;;;;;;1999.90;999.90;;;39.30;59.40;;;;;;5054054;28;20052;-61
2022/08/24 11:56:39;;;;;;;1999.90;999.90;;;39.40;58.50;;;;;;5054684;28;20072;-61
2022/08/24 11:59:16;;;;;;;1999.90;999.90;;;39.30;57.20;;;;;;5034738;28;20050;-61
2022/08/24 12:02:02;;;;;;;1999.90;999.90;;;39.00;58.00;;;;;;5053401;28;20505;-61
2022/08/24 12:04:52;;;;;;;1999.90;999.90;;;38.70;58.30;;;;;;5055107;28;20048;-61
2022/08/24 12:07:25;;;;;;;1999.90;999.90;;;38.50;56.80;;;;;;5052535;28;20057;-62
2022/08/24 12:10:10;;;;;;;1999.90;999.90;;;37.90;58.30;;;;;;5053627;28;20041;-62
2022/08/24 12:12:52;;;;;;;1999.90;999.90;;;38.10;57.20;;;;;;5046583;28;20064;-62
2022/08/24 12:15:35;;;;;;;1999.90;999.90;;;37.90;57.60;;;;;;5042557;28;20072;-61
2022/08/24 12:18:11;;;;;;;1999.90;999.90;;;37.10;57.30;;;;;;5042647;28;20043;-62
2022/08/24 12:20:42;;;;;;;1999.90;999.90;;;36.10;60.40;;;;;;5053665;28;20085;-61
2022/08/24 12:23:19;;;;;;;1999.90;999.90;;;35.90;60.60;;;;;;5054642;28;20175;-62
2022/08/24 12:26:00;;;;;;;1999.90;999.90;;;35.80;61.10;;;;;;5034579;28;20057;-62
2022/08/24 12:28:39;;;;;;;1999.90;999.90;;;35.50;61.30;;;;;;5043109;28;20464;-61
2022/08/24 12:31:18;;;;;;;1999.90;999.90;;;34.90;62.80;;;;;;5054055;28;20667;-61
2022/08/24 12:33:50;;;;;;;1999.90;999.90;;;34.30;65.20;;;;;;5054602;28;20044;-61
2022/08/24 12:36:24;;;;;;;1999.90;999.90;;;33.60;65.90;;;;;;5085648;28;20052;-62
2022/08/24 12:39:06;;;;;;;1999.90;999.90;;;33.70;65.80;;;;;;5053006;28;20101;-61
2022/08/24 12:41:37;;;;;;;1999.90;999.90;;;34.80;64.30;;;;;;5051877;28;20472;-62
2022/08/24 12:44:08;;;;;;;1999.90;999.90;;;36.40;62.10;;;;;;5053310;28;20103;-62
2022/08/24 12:46:35;;;;;;;1999.90;999.90;;;37.60;60.80;;;;;;5051066;28;20532;-62
2022/08/24 12:49:06;;;;;;;1999.90;999.90;;;38.40;59.30;;;;;;5051195;28;20045;-61